sensor_id;sensor_type;location;lat;lon;timestamp;P1;durP1;ratioP1;P2;durP2;ratioP2
38455;SDS011;24237;50.106;20.014;2023-05-10T00:01:23;12.98;;;5.43;;
38455;SDS011;24237;50.106;20.014;2023-05-10T00:03:48;13.93;;;5.90;;
38455;SDS011;24237;50.106;20.014;2023-05-10T00:06:14;15.48;;;5.85;;
38455;SDS011;24237;50.106;20.014;2023-05-10T00:08:40;13.88;;;5.90;;
38455;SDS011;24237;50.106;20.014;2023-05-10T00:11:06;12.98;;;5.72;;
38455;SDS011;24237;50.106;20.014;2023-05-10T00:13:32;9.70;;;5.35;;
38455;SDS011;24237;50.106;20.014;2023-05-10T00:15:58;14.32;;;5.10;;
38455;SDS011;24237;50.106;20.014;2023-05-10T00:18:23;9.82;;;5.13;;
38455;SDS011;24237;50.106;20.014;2023-05-10T00:20:49;11.88;;;5.47;;
38455;SDS011;24237;50.106;20.014;2023-05-10T00:23:15;10.43;;;5.45;;
38455;SDS011;24237;50.106;20.014;2023-05-10T00:25:41;25.25;;;5.68;;
38455;SDS011;24237;50.106;20.014;2023-05-10T00:28:06;22.70;;;6.72;;
38455;SDS011;24237;50.106;20.014;2023-05-10T00:30:52;14.55;;;5.63;;
38455;SDS011;24237;50.106;20.014;2023-05-10T00:33:17;11.88;;;5.93;;
38455;SDS011;24237;50.106;20.014;2023-05-10T00:35:43;17.52;;;6.03;;
38455;SDS011;24237;50.106;20.014;2023-05-10T00:38:09;18.33;;;6.10;;
38455;SDS011;24237;50.106;20.014;2023-05-10T00:40:35;11.88;;;5.22;;
38455;SDS011;24237;50.106;20.014;2023-05-10T00:43:02;19.00;;;5.63;;
38455;SDS011;24237;50.106;20.014;2023-05-10T00:45:29;12.98;;;6.43;;
38455;SDS011;24237;50.106;20.014;2023-05-10T00:50:21;16.95;;;5.97;;
38455;SDS011;24237;50.106;20.014;2023-05-10T00:52:48;11.63;;;5.73;;
38455;SDS011;24237;50.106;20.014;2023-05-10T00:55:14;13.02;;;5.40;;
38455;SDS011;24237;50.106;20.014;2023-05-10T00:57:40;13.77;;;5.75;;
38455;SDS011;24237;50.106;20.014;2023-05-10T01:02:34;12.48;;;5.68;;
38455;SDS011;24237;50.106;20.014;2023-05-10T01:05:01;11.80;;;5.43;;
38455;SDS011;24237;50.106;20.014;2023-05-10T01:07:28;11.05;;;4.88;;
38455;SDS011;24237;50.106;20.014;2023-05-10T01:09:54;10.10;;;4.90;;
38455;SDS011;24237;50.106;20.014;2023-05-10T01:12:20;10.80;;;5.20;;
38455;SDS011;24237;50.106;20.014;2023-05-10T01:14:46;12.82;;;5.55;;
38455;SDS011;24237;50.106;20.014;2023-05-10T01:17:12;11.77;;;5.40;;
38455;SDS011;24237;50.106;20.014;2023-05-10T01:19:39;13.60;;;5.53;;
38455;SDS011;24237;50.106;20.014;2023-05-10T01:22:08;14.30;;;5.50;;
38455;SDS011;24237;50.106;20.014;2023-05-10T01:33:11;10.95;;;5.63;;
38455;SDS011;24237;50.106;20.014;2023-05-10T01:35:55;15.02;;;6.22;;
38455;SDS011;24237;50.106;20.014;2023-05-10T01:38:40;9.73;;;5.30;;
38455;SDS011;24237;50.106;20.014;2023-05-10T01:41:31;13.32;;;5.38;;
38455;SDS011;24237;50.106;20.014;2023-05-10T01:47:06;12.75;;;5.40;;
38455;SDS011;24237;50.106;20.014;2023-05-10T01:49:41;10.18;;;4.82;;
38455;SDS011;24237;50.106;20.014;2023-05-10T01:52:12;13.90;;;4.90;;
38455;SDS011;24237;50.106;20.014;2023-05-10T01:54:43;12.95;;;5.30;;
38455;SDS011;24237;50.106;20.014;2023-05-10T01:57:14;13.73;;;5.22;;
38455;SDS011;24237;50.106;20.014;2023-05-10T01:59:45;13.40;;;4.55;;
38455;SDS011;24237;50.106;20.014;2023-05-10T02:02:13;10.68;;;5.53;;
38455;SDS011;24237;50.106;20.014;2023-05-10T02:04:41;14.15;;;4.90;;
38455;SDS011;24237;50.106;20.014;2023-05-10T02:07:08;10.40;;;5.43;;
38455;SDS011;24237;50.106;20.014;2023-05-10T02:09:35;11.70;;;6.05;;
38455;SDS011;24237;50.106;20.014;2023-05-10T02:12:02;10.82;;;6.00;;
38455;SDS011;24237;50.106;20.014;2023-05-10T02:14:30;11.57;;;5.43;;
38455;SDS011;24237;50.106;20.014;2023-05-10T02:16:59;11.57;;;5.32;;
38455;SDS011;24237;50.106;20.014;2023-05-10T02:19:27;17.17;;;4.80;;
38455;SDS011;24237;50.106;20.014;2023-05-10T02:21:55;11.88;;;5.25;;
38455;SDS011;24237;50.106;20.014;2023-05-10T02:24:22;10.95;;;4.90;;
38455;SDS011;24237;50.106;20.014;2023-05-10T02:26:51;12.25;;;5.93;;
38455;SDS011;24237;50.106;20.014;2023-05-10T02:29:18;8.68;;;4.90;;
38455;SDS011;24237;50.106;20.014;2023-05-10T02:32:05;9.77;;;5.25;;
38455;SDS011;24237;50.106;20.014;2023-05-10T02:34:32;13.45;;;5.43;;
38455;SDS011;24237;50.106;20.014;2023-05-10T02:36:58;11.27;;;5.60;;
38455;SDS011;24237;50.106;20.014;2023-05-10T02:39:25;8.95;;;5.22;;
38455;SDS011;24237;50.106;20.014;2023-05-10T02:41:53;12.32;;;5.82;;
38455;SDS011;24237;50.106;20.014;2023-05-10T02:44:20;15.83;;;6.47;;
38455;SDS011;24237;50.106;20.014;2023-05-10T02:46:47;11.10;;;6.40;;
38455;SDS011;24237;50.106;20.014;2023-05-10T02:49:33;17.95;;;6.05;;
38455;SDS011;24237;50.106;20.014;2023-05-10T02:52:01;12.45;;;5.35;;
38455;SDS011;24237;50.106;20.014;2023-05-10T02:54:32;8.50;;;5.00;;
38455;SDS011;24237;50.106;20.014;2023-05-10T02:57:03;12.77;;;5.25;;
38455;SDS011;24237;50.106;20.014;2023-05-10T02:59:30;12.35;;;4.97;;
38455;SDS011;24237;50.106;20.014;2023-05-10T03:01:59;13.35;;;4.78;;
38455;SDS011;24237;50.106;20.014;2023-05-10T03:04:28;7.65;;;4.80;;
38455;SDS011;24237;50.106;20.014;2023-05-10T03:06:53;10.18;;;5.22;;
38455;SDS011;24237;50.106;20.014;2023-05-10T03:09:19;12.40;;;5.20;;
38455;SDS011;24237;50.106;20.014;2023-05-10T03:11:55;9.88;;;4.90;;
38455;SDS011;24237;50.106;20.014;2023-05-10T03:22:24;15.98;;;5.78;;
38455;SDS011;24237;50.106;20.014;2023-05-10T03:24:55;9.55;;;5.28;;
38455;SDS011;24237;50.106;20.014;2023-05-10T03:27:23;10.65;;;5.60;;
38455;SDS011;24237;50.106;20.014;2023-05-10T03:29:51;12.18;;;5.18;;
38455;SDS011;24237;50.106;20.014;2023-05-10T03:34:44;10.25;;;5.30;;
38455;SDS011;24237;50.106;20.014;2023-05-10T03:37:10;12.52;;;5.88;;
38455;SDS011;24237;50.106;20.014;2023-05-10T03:39:35;12.00;;;5.75;;
38455;SDS011;24237;50.106;20.014;2023-05-10T03:42:01;11.63;;;5.07;;
38455;SDS011;24237;50.106;20.014;2023-05-10T03:44:27;8.82;;;4.97;;
38455;SDS011;24237;50.106;20.014;2023-05-10T03:46:53;11.20;;;4.97;;
38455;SDS011;24237;50.106;20.014;2023-05-10T03:49:18;23.25;;;4.97;;
38455;SDS011;24237;50.106;20.014;2023-05-10T03:51:44;11.75;;;5.95;;
38455;SDS011;24237;50.106;20.014;2023-05-10T03:54:09;10.15;;;5.43;;
38455;SDS011;24237;50.106;20.014;2023-05-10T03:56:35;18.42;;;5.35;;
38455;SDS011;24237;50.106;20.014;2023-05-10T03:59:01;8.07;;;5.00;;
38455;SDS011;24237;50.106;20.014;2023-05-10T04:01:32;11.50;;;5.82;;
38455;SDS011;24237;50.106;20.014;2023-05-10T04:03:58;11.35;;;4.95;;
38455;SDS011;24237;50.106;20.014;2023-05-10T04:06:24;10.65;;;4.60;;
38455;SDS011;24237;50.106;20.014;2023-05-10T04:08:49;12.15;;;4.72;;
38455;SDS011;24237;50.106;20.014;2023-05-10T04:11:15;11.63;;;4.43;;
38455;SDS011;24237;50.106;20.014;2023-05-10T04:13:41;7.97;;;4.57;;
38455;SDS011;24237;50.106;20.014;2023-05-10T04:16:07;12.40;;;4.60;;
38455;SDS011;24237;50.106;20.014;2023-05-10T04:18:34;13.30;;;4.68;;
38455;SDS011;24237;50.106;20.014;2023-05-10T04:21:00;8.38;;;5.10;;
38455;SDS011;24237;50.106;20.014;2023-05-10T04:23:26;9.52;;;5.18;;
38455;SDS011;24237;50.106;20.014;2023-05-10T04:25:52;8.77;;;4.70;;
38455;SDS011;24237;50.106;20.014;2023-05-10T04:28:23;9.63;;;4.85;;
38455;SDS011;24237;50.106;20.014;2023-05-10T04:30:49;11.95;;;5.43;;
38455;SDS011;24237;50.106;20.014;2023-05-10T04:33:15;9.93;;;4.55;;
38455;SDS011;24237;50.106;20.014;2023-05-10T04:35:40;7.65;;;5.10;;
38455;SDS011;24237;50.106;20.014;2023-05-10T04:41:15;18.95;;;5.88;;
38455;SDS011;24237;50.106;20.014;2023-05-10T04:43:41;18.23;;;5.38;;
38455;SDS011;24237;50.106;20.014;2023-05-10T04:46:07;9.98;;;5.35;;
38455;SDS011;24237;50.106;20.014;2023-05-10T04:48:32;11.93;;;4.97;;
38455;SDS011;24237;50.106;20.014;2023-05-10T04:50:58;9.10;;;5.40;;
38455;SDS011;24237;50.106;20.014;2023-05-10T04:53:24;16.80;;;5.28;;
38455;SDS011;24237;50.106;20.014;2023-05-10T04:55:50;13.23;;;5.32;;
38455;SDS011;24237;50.106;20.014;2023-05-10T04:58:15;13.25;;;5.47;;
38455;SDS011;24237;50.106;20.014;2023-05-10T05:00:41;14.07;;;5.10;;
38455;SDS011;24237;50.106;20.014;2023-05-10T05:03:07;14.68;;;4.82;;
38455;SDS011;24237;50.106;20.014;2023-05-10T05:05:33;14.65;;;5.18;;
38455;SDS011;24237;50.106;20.014;2023-05-10T05:07:58;9.50;;;4.72;;
38455;SDS011;24237;50.106;20.014;2023-05-10T05:10:24;11.48;;;5.00;;
38455;SDS011;24237;50.106;20.014;2023-05-10T05:12:50;9.38;;;4.88;;
38455;SDS011;24237;50.106;20.014;2023-05-10T05:15:15;10.95;;;4.95;;
38455;SDS011;24237;50.106;20.014;2023-05-10T05:17:42;12.77;;;4.47;;
38455;SDS011;24237;50.106;20.014;2023-05-10T05:20:08;11.93;;;5.60;;
38455;SDS011;24237;50.106;20.014;2023-05-10T05:22:35;11.07;;;4.78;;
38455;SDS011;24237;50.106;20.014;2023-05-10T05:27:28;10.55;;;4.97;;
38455;SDS011;24237;50.106;20.014;2023-05-10T05:29:57;26.83;;;6.20;;
38455;SDS011;24237;50.106;20.014;2023-05-10T05:32:23;16.10;;;4.75;;
38455;SDS011;24237;50.106;20.014;2023-05-10T05:34:50;16.10;;;4.75;;
38455;SDS011;24237;50.106;20.014;2023-05-10T05:37:19;10.45;;;5.40;;
38455;SDS011;24237;50.106;20.014;2023-05-10T05:39:46;18.60;;;5.03;;
38455;SDS011;24237;50.106;20.014;2023-05-10T05:42:12;15.00;;;5.05;;
38455;SDS011;24237;50.106;20.014;2023-05-10T05:44:39;16.05;;;4.93;;
38455;SDS011;24237;50.106;20.014;2023-05-10T05:47:05;12.32;;;5.25;;
38455;SDS011;24237;50.106;20.014;2023-05-10T05:49:31;15.93;;;5.70;;
38455;SDS011;24237;50.106;20.014;2023-05-10T05:52:00;13.82;;;5.40;;
38455;SDS011;24237;50.106;20.014;2023-05-10T05:54:27;15.27;;;5.28;;
38455;SDS011;24237;50.106;20.014;2023-05-10T05:56:58;24.60;;;5.75;;
38455;SDS011;24237;50.106;20.014;2023-05-10T05:59:25;12.02;;;5.32;;
38455;SDS011;24237;50.106;20.014;2023-05-10T06:01:51;19.30;;;4.90;;
38455;SDS011;24237;50.106;20.014;2023-05-10T06:04:16;17.38;;;5.13;;
38455;SDS011;24237;50.106;20.014;2023-05-10T06:06:42;28.50;;;6.00;;
38455;SDS011;24237;50.106;20.014;2023-05-10T06:09:08;8.70;;;4.22;;
38455;SDS011;24237;50.106;20.014;2023-05-10T06:11:34;9.95;;;4.57;;
38455;SDS011;24237;50.106;20.014;2023-05-10T06:14:00;11.70;;;4.93;;
38455;SDS011;24237;50.106;20.014;2023-05-10T06:16:26;9.80;;;4.78;;
38455;SDS011;24237;50.106;20.014;2023-05-10T06:18:52;10.77;;;4.82;;
38455;SDS011;24237;50.106;20.014;2023-05-10T06:21:18;16.50;;;6.00;;
38455;SDS011;24237;50.106;20.014;2023-05-10T06:23:44;10.93;;;5.32;;
38455;SDS011;24237;50.106;20.014;2023-05-10T06:26:10;17.92;;;5.55;;
38455;SDS011;24237;50.106;20.014;2023-05-10T06:28:35;12.30;;;6.07;;
38455;SDS011;24237;50.106;20.014;2023-05-10T06:31:04;15.75;;;5.10;;
38455;SDS011;24237;50.106;20.014;2023-05-10T06:33:30;18.35;;;4.80;;
38455;SDS011;24237;50.106;20.014;2023-05-10T06:35:56;12.38;;;5.28;;
38455;SDS011;24237;50.106;20.014;2023-05-10T06:38:22;11.80;;;4.57;;
38455;SDS011;24237;50.106;20.014;2023-05-10T06:40:47;14.35;;;5.03;;
38455;SDS011;24237;50.106;20.014;2023-05-10T06:43:13;13.80;;;4.88;;
38455;SDS011;24237;50.106;20.014;2023-05-10T06:45:42;18.48;;;5.38;;
38455;SDS011;24237;50.106;20.014;2023-05-10T06:48:11;24.00;;;6.13;;
38455;SDS011;24237;50.106;20.014;2023-05-10T06:50:36;16.33;;;5.40;;
38455;SDS011;24237;50.106;20.014;2023-05-10T06:53:02;14.32;;;5.03;;
38455;SDS011;24237;50.106;20.014;2023-05-10T06:55:27;19.98;;;5.05;;
38455;SDS011;24237;50.106;20.014;2023-05-10T06:57:54;14.50;;;5.65;;
38455;SDS011;24237;50.106;20.014;2023-05-10T07:00:19;12.15;;;4.80;;
38455;SDS011;24237;50.106;20.014;2023-05-10T07:02:45;12.05;;;4.95;;
38455;SDS011;24237;50.106;20.014;2023-05-10T07:05:12;15.90;;;4.55;;
38455;SDS011;24237;50.106;20.014;2023-05-10T07:07:38;12.27;;;4.00;;
38455;SDS011;24237;50.106;20.014;2023-05-10T07:10:04;8.00;;;4.53;;
38455;SDS011;24237;50.106;20.014;2023-05-10T07:12:30;10.88;;;5.00;;
38455;SDS011;24237;50.106;20.014;2023-05-10T07:14:56;11.05;;;4.70;;
38455;SDS011;24237;50.106;20.014;2023-05-10T07:17:22;13.88;;;4.80;;
38455;SDS011;24237;50.106;20.014;2023-05-10T07:19:47;10.05;;;4.15;;
38455;SDS011;24237;50.106;20.014;2023-05-10T07:22:14;9.55;;;4.82;;
38455;SDS011;24237;50.106;20.014;2023-05-10T07:24:40;9.18;;;4.30;;
38455;SDS011;24237;50.106;20.014;2023-05-10T07:27:05;6.95;;;4.15;;
38455;SDS011;24237;50.106;20.014;2023-05-10T07:29:31;12.30;;;4.60;;
38455;SDS011;24237;50.106;20.014;2023-05-10T07:31:57;6.32;;;4.10;;
38455;SDS011;24237;50.106;20.014;2023-05-10T07:34:23;33.08;;;5.68;;
38455;SDS011;24237;50.106;20.014;2023-05-10T07:36:48;24.77;;;4.63;;
38455;SDS011;24237;50.106;20.014;2023-05-10T07:39:14;11.52;;;4.78;;
38455;SDS011;24237;50.106;20.014;2023-05-10T07:41:42;9.43;;;3.90;;
38455;SDS011;24237;50.106;20.014;2023-05-10T07:44:08;12.80;;;4.25;;
38455;SDS011;24237;50.106;20.014;2023-05-10T07:46:33;17.80;;;4.30;;
38455;SDS011;24237;50.106;20.014;2023-05-10T07:48:59;11.77;;;3.92;;
38455;SDS011;24237;50.106;20.014;2023-05-10T07:51:25;6.93;;;3.83;;
38455;SDS011;24237;50.106;20.014;2023-05-10T07:53:51;5.88;;;3.72;;
38455;SDS011;24237;50.106;20.014;2023-05-10T07:58:50;27.92;;;4.88;;
38455;SDS011;24237;50.106;20.014;2023-05-10T08:01:16;18.65;;;4.18;;
38455;SDS011;24237;50.106;20.014;2023-05-10T08:03:42;8.07;;;3.90;;
38455;SDS011;24237;50.106;20.014;2023-05-10T08:06:08;10.55;;;3.67;;
38455;SDS011;24237;50.106;20.014;2023-05-10T08:08:34;7.53;;;3.33;;
38455;SDS011;24237;50.106;20.014;2023-05-10T08:10:59;13.15;;;3.13;;
38455;SDS011;24237;50.106;20.014;2023-05-10T08:13:25;14.57;;;3.75;;
38455;SDS011;24237;50.106;20.014;2023-05-10T08:15:50;8.52;;;3.40;;
38455;SDS011;24237;50.106;20.014;2023-05-10T08:18:18;15.90;;;3.00;;
38455;SDS011;24237;50.106;20.014;2023-05-10T08:20:44;10.15;;;2.90;;
38455;SDS011;24237;50.106;20.014;2023-05-10T08:23:09;16.67;;;3.65;;
38455;SDS011;24237;50.106;20.014;2023-05-10T08:28:03;5.57;;;3.00;;
38455;SDS011;24237;50.106;20.014;2023-05-10T08:30:28;7.32;;;2.88;;
38455;SDS011;24237;50.106;20.014;2023-05-10T08:32:54;8.60;;;3.45;;
38455;SDS011;24237;50.106;20.014;2023-05-10T08:35:20;9.27;;;3.70;;
38455;SDS011;24237;50.106;20.014;2023-05-10T08:37:49;13.60;;;3.08;;
38455;SDS011;24237;50.106;20.014;2023-05-10T08:40:15;14.45;;;3.53;;
38455;SDS011;24237;50.106;20.014;2023-05-10T08:42:43;6.00;;;3.58;;
38455;SDS011;24237;50.106;20.014;2023-05-10T08:45:18;7.55;;;3.40;;
38455;SDS011;24237;50.106;20.014;2023-05-10T08:47:47;24.08;;;3.28;;
38455;SDS011;24237;50.106;20.014;2023-05-10T08:50:13;5.60;;;2.42;;
38455;SDS011;24237;50.106;20.014;2023-05-10T08:52:41;13.25;;;3.05;;
38455;SDS011;24237;50.106;20.014;2023-05-10T08:55:07;19.60;;;4.80;;
38455;SDS011;24237;50.106;20.014;2023-05-10T08:57:33;16.48;;;3.13;;
38455;SDS011;24237;50.106;20.014;2023-05-10T09:00:00;21.45;;;10.40;;
38455;SDS011;24237;50.106;20.014;2023-05-10T09:02:26;33.50;;;5.13;;
38455;SDS011;24237;50.106;20.014;2023-05-10T09:04:52;17.23;;;3.70;;
38455;SDS011;24237;50.106;20.014;2023-05-10T09:07:18;21.23;;;2.97;;
38455;SDS011;24237;50.106;20.014;2023-05-10T09:09:44;30.17;;;3.47;;
38455;SDS011;24237;50.106;20.014;2023-05-10T09:12:11;25.80;;;4.22;;
38455;SDS011;24237;50.106;20.014;2023-05-10T09:14:38;21.33;;;2.60;;
38455;SDS011;24237;50.106;20.014;2023-05-10T09:17:04;10.95;;;3.05;;
38455;SDS011;24237;50.106;20.014;2023-05-10T09:19:30;13.70;;;3.25;;
38455;SDS011;24237;50.106;20.014;2023-05-10T09:21:55;7.75;;;3.28;;
38455;SDS011;24237;50.106;20.014;2023-05-10T09:24:25;23.25;;;4.00;;
38455;SDS011;24237;50.106;20.014;2023-05-10T09:26:52;21.85;;;3.55;;
38455;SDS011;24237;50.106;20.014;2023-05-10T09:29:17;34.85;;;4.18;;
38455;SDS011;24237;50.106;20.014;2023-05-10T09:31:44;15.43;;;3.22;;
38455;SDS011;24237;50.106;20.014;2023-05-10T09:34:18;10.23;;;2.30;;
38455;SDS011;24237;50.106;20.014;2023-05-10T09:36:52;26.67;;;3.47;;
38455;SDS011;24237;50.106;20.014;2023-05-10T09:39:19;10.85;;;3.60;;
38455;SDS011;24237;50.106;20.014;2023-05-10T09:41:45;36.70;;;3.50;;
38455;SDS011;24237;50.106;20.014;2023-05-10T09:44:11;49.57;;;4.00;;
38455;SDS011;24237;50.106;20.014;2023-05-10T09:46:42;18.73;;;3.35;;
38455;SDS011;24237;50.106;20.014;2023-05-10T09:49:08;26.27;;;4.25;;
38455;SDS011;24237;50.106;20.014;2023-05-10T09:51:34;31.58;;;3.45;;
38455;SDS011;24237;50.106;20.014;2023-05-10T09:56:40;10.45;;;3.15;;
38455;SDS011;24237;50.106;20.014;2023-05-10T09:59:09;43.33;;;4.75;;
38455;SDS011;24237;50.106;20.014;2023-05-10T10:01:36;13.35;;;2.33;;
38455;SDS011;24237;50.106;20.014;2023-05-10T10:04:06;15.48;;;3.20;;
38455;SDS011;24237;50.106;20.014;2023-05-10T10:06:37;52.22;;;4.10;;
38455;SDS011;24237;50.106;20.014;2023-05-10T10:09:03;28.42;;;2.97;;
38455;SDS011;24237;50.106;20.014;2023-05-10T10:11:30;14.18;;;3.28;;
38455;SDS011;24237;50.106;20.014;2023-05-10T10:13:56;15.05;;;3.38;;
38455;SDS011;24237;50.106;20.014;2023-05-10T10:16:22;7.90;;;3.35;;
38455;SDS011;24237;50.106;20.014;2023-05-10T10:18:48;28.88;;;16.48;;
38455;SDS011;24237;50.106;20.014;2023-05-10T10:21:14;9.15;;;4.93;;
38455;SDS011;24237;50.106;20.014;2023-05-10T10:23:40;10.60;;;2.83;;
38455;SDS011;24237;50.106;20.014;2023-05-10T10:26:06;22.55;;;3.50;;
38455;SDS011;24237;50.106;20.014;2023-05-10T10:34:07;14.02;;;4.30;;
38455;SDS011;24237;50.106;20.014;2023-05-10T10:36:45;12.45;;;5.05;;
38455;SDS011;24237;50.106;20.014;2023-05-10T10:39:12;4.13;;;2.30;;
38455;SDS011;24237;50.106;20.014;2023-05-10T10:41:39;4.90;;;2.70;;
38455;SDS011;24237;50.106;20.014;2023-05-10T10:49:26;20.85;;;4.07;;
38455;SDS011;24237;50.106;20.014;2023-05-10T10:57:31;22.10;;;4.97;;
38455;SDS011;24237;50.106;20.014;2023-05-10T11:00:32;8.93;;;2.50;;
38455;SDS011;24237;50.106;20.014;2023-05-10T11:05:40;5.43;;;2.47;;
38455;SDS011;24237;50.106;20.014;2023-05-10T11:08:27;11.48;;;2.90;;
38455;SDS011;24237;50.106;20.014;2023-05-10T11:13:33;16.00;;;3.03;;
38455;SDS011;24237;50.106;20.014;2023-05-10T11:19:03;8.43;;;3.05;;
38455;SDS011;24237;50.106;20.014;2023-05-10T11:21:32;9.85;;;2.90;;
38455;SDS011;24237;50.106;20.014;2023-05-10T11:24:00;15.60;;;3.08;;
38455;SDS011;24237;50.106;20.014;2023-05-10T11:26:31;7.63;;;3.00;;
38455;SDS011;24237;50.106;20.014;2023-05-10T11:28:58;15.25;;;2.85;;
38455;SDS011;24237;50.106;20.014;2023-05-10T11:31:25;9.20;;;3.10;;
38455;SDS011;24237;50.106;20.014;2023-05-10T11:33:55;23.63;;;3.80;;
38455;SDS011;24237;50.106;20.014;2023-05-10T11:38:52;2.15;;;1.80;;
38455;SDS011;24237;50.106;20.014;2023-05-10T11:41:19;16.13;;;4.05;;
38455;SDS011;24237;50.106;20.014;2023-05-10T11:43:51;17.75;;;3.80;;
38455;SDS011;24237;50.106;20.014;2023-05-10T11:46:19;15.38;;;3.70;;
38455;SDS011;24237;50.106;20.014;2023-05-10T11:48:46;43.55;;;4.20;;
38455;SDS011;24237;50.106;20.014;2023-05-10T11:51:14;23.27;;;2.63;;
38455;SDS011;24237;50.106;20.014;2023-05-10T11:53:41;40.30;;;3.67;;
38455;SDS011;24237;50.106;20.014;2023-05-10T11:56:07;20.30;;;4.70;;
38455;SDS011;24237;50.106;20.014;2023-05-10T11:58:35;31.75;;;2.80;;
38455;SDS011;24237;50.106;20.014;2023-05-10T12:01:01;28.52;;;2.97;;
38455;SDS011;24237;50.106;20.014;2023-05-10T12:03:28;14.20;;;2.67;;
38455;SDS011;24237;50.106;20.014;2023-05-10T12:05:54;8.25;;;2.28;;
38455;SDS011;24237;50.106;20.014;2023-05-10T12:08:22;79.40;;;5.28;;
38455;SDS011;24237;50.106;20.014;2023-05-10T12:11:03;30.83;;;3.25;;
38455;SDS011;24237;50.106;20.014;2023-05-10T12:13:30;30.50;;;3.30;;
38455;SDS011;24237;50.106;20.014;2023-05-10T12:15:58;53.13;;;4.05;;
38455;SDS011;24237;50.106;20.014;2023-05-10T12:18:24;15.43;;;2.85;;
38455;SDS011;24237;50.106;20.014;2023-05-10T12:20:53;21.95;;;3.30;;
38455;SDS011;24237;50.106;20.014;2023-05-10T12:23:19;12.02;;;2.92;;
38455;SDS011;24237;50.106;20.014;2023-05-10T12:25:45;10.02;;;2.95;;
38455;SDS011;24237;50.106;20.014;2023-05-10T12:28:11;17.00;;;2.72;;
38455;SDS011;24237;50.106;20.014;2023-05-10T12:30:37;28.75;;;2.97;;
38455;SDS011;24237;50.106;20.014;2023-05-10T12:33:10;20.47;;;2.80;;
38455;SDS011;24237;50.106;20.014;2023-05-10T12:35:44;22.52;;;7.55;;
38455;SDS011;24237;50.106;20.014;2023-05-10T12:38:28;33.38;;;2.92;;
38455;SDS011;24237;50.106;20.014;2023-05-10T12:40:56;12.10;;;2.15;;
38455;SDS011;24237;50.106;20.014;2023-05-10T12:43:26;12.52;;;2.85;;
38455;SDS011;24237;50.106;20.014;2023-05-10T12:45:52;10.50;;;2.47;;
38455;SDS011;24237;50.106;20.014;2023-05-10T12:48:17;22.38;;;3.50;;
38455;SDS011;24237;50.106;20.014;2023-05-10T12:50:43;19.77;;;2.90;;
38455;SDS011;24237;50.106;20.014;2023-05-10T12:53:09;26.08;;;3.05;;
38455;SDS011;24237;50.106;20.014;2023-05-10T12:55:35;23.10;;;3.10;;
38455;SDS011;24237;50.106;20.014;2023-05-10T12:58:00;9.93;;;2.92;;
38455;SDS011;24237;50.106;20.014;2023-05-10T13:00:26;15.77;;;2.53;;
38455;SDS011;24237;50.106;20.014;2023-05-10T13:02:52;23.50;;;3.08;;
38455;SDS011;24237;50.106;20.014;2023-05-10T13:05:18;23.42;;;2.22;;
38455;SDS011;24237;50.106;20.014;2023-05-10T13:07:43;12.30;;;2.30;;
38455;SDS011;24237;50.106;20.014;2023-05-10T13:10:17;9.43;;;2.30;;
38455;SDS011;24237;50.106;20.014;2023-05-10T13:12:43;7.82;;;2.08;;
38455;SDS011;24237;50.106;20.014;2023-05-10T13:15:09;4.28;;;1.77;;
38455;SDS011;24237;50.106;20.014;2023-05-10T13:17:34;7.28;;;2.28;;
38455;SDS011;24237;50.106;20.014;2023-05-10T13:20:00;7.20;;;2.47;;
38455;SDS011;24237;50.106;20.014;2023-05-10T13:22:25;12.60;;;2.58;;
38455;SDS011;24237;50.106;20.014;2023-05-10T13:24:51;35.38;;;3.85;;
38455;SDS011;24237;50.106;20.014;2023-05-10T13:27:17;8.40;;;2.28;;
38455;SDS011;24237;50.106;20.014;2023-05-10T13:29:42;14.00;;;2.42;;
38455;SDS011;24237;50.106;20.014;2023-05-10T13:32:08;13.20;;;2.55;;
38455;SDS011;24237;50.106;20.014;2023-05-10T13:34:34;14.60;;;3.55;;
38455;SDS011;24237;50.106;20.014;2023-05-10T13:37:00;19.55;;;2.70;;
38455;SDS011;24237;50.106;20.014;2023-05-10T13:39:26;11.45;;;2.35;;
38455;SDS011;24237;50.106;20.014;2023-05-10T13:41:52;11.48;;;2.65;;
38455;SDS011;24237;50.106;20.014;2023-05-10T13:44:17;12.00;;;3.63;;
38455;SDS011;24237;50.106;20.014;2023-05-10T13:49:10;71.38;;;5.20;;
38455;SDS011;24237;50.106;20.014;2023-05-10T13:51:36;30.85;;;3.08;;
38455;SDS011;24237;50.106;20.014;2023-05-10T13:54:02;16.02;;;3.10;;
38455;SDS011;24237;50.106;20.014;2023-05-10T13:56:28;11.97;;;2.20;;
38455;SDS011;24237;50.106;20.014;2023-05-10T13:58:53;21.98;;;2.55;;
38455;SDS011;24237;50.106;20.014;2023-05-10T14:01:19;12.05;;;2.13;;
38455;SDS011;24237;50.106;20.014;2023-05-10T14:03:45;5.63;;;1.88;;
38455;SDS011;24237;50.106;20.014;2023-05-10T14:06:11;7.30;;;2.38;;
38455;SDS011;24237;50.106;20.014;2023-05-10T14:08:36;4.95;;;1.92;;
38455;SDS011;24237;50.106;20.014;2023-05-10T14:11:02;9.52;;;2.33;;
38455;SDS011;24237;50.106;20.014;2023-05-10T14:13:28;13.55;;;3.70;;
38455;SDS011;24237;50.106;20.014;2023-05-10T14:15:54;16.35;;;2.17;;
38455;SDS011;24237;50.106;20.014;2023-05-10T14:18:20;8.48;;;1.85;;
38455;SDS011;24237;50.106;20.014;2023-05-10T14:20:45;11.45;;;2.08;;
38455;SDS011;24237;50.106;20.014;2023-05-10T14:23:11;4.38;;;1.77;;
38455;SDS011;24237;50.106;20.014;2023-05-10T14:25:37;7.80;;;1.90;;
38455;SDS011;24237;50.106;20.014;2023-05-10T14:28:05;3.92;;;1.67;;
38455;SDS011;24237;50.106;20.014;2023-05-10T14:30:31;26.77;;;4.50;;
38455;SDS011;24237;50.106;20.014;2023-05-10T14:32:57;14.30;;;2.92;;
38455;SDS011;24237;50.106;20.014;2023-05-10T14:35:23;7.32;;;1.88;;
38455;SDS011;24237;50.106;20.014;2023-05-10T14:37:49;28.38;;;2.97;;
38455;SDS011;24237;50.106;20.014;2023-05-10T14:40:15;21.30;;;2.88;;
38455;SDS011;24237;50.106;20.014;2023-05-10T14:42:42;15.20;;;2.22;;
38455;SDS011;24237;50.106;20.014;2023-05-10T14:45:08;11.38;;;2.17;;
38455;SDS011;24237;50.106;20.014;2023-05-10T14:47:34;8.13;;;1.83;;
38455;SDS011;24237;50.106;20.014;2023-05-10T14:50:03;10.52;;;2.20;;
38455;SDS011;24237;50.106;20.014;2023-05-10T14:52:32;50.55;;;3.83;;
38455;SDS011;24237;50.106;20.014;2023-05-10T14:54:58;5.43;;;1.80;;
38455;SDS011;24237;50.106;20.014;2023-05-10T14:57:25;8.30;;;2.13;;
38455;SDS011;24237;50.106;20.014;2023-05-10T14:59:50;10.07;;;2.08;;
38455;SDS011;24237;50.106;20.014;2023-05-10T15:02:16;3.72;;;1.35;;
38455;SDS011;24237;50.106;20.014;2023-05-10T15:04:42;6.32;;;2.25;;
38455;SDS011;24237;50.106;20.014;2023-05-10T15:07:27;6.60;;;1.85;;
38455;SDS011;24237;50.106;20.014;2023-05-10T15:09:53;9.70;;;2.30;;
38455;SDS011;24237;50.106;20.014;2023-05-10T15:12:19;13.05;;;2.40;;
38455;SDS011;24237;50.106;20.014;2023-05-10T15:14:45;11.43;;;2.20;;
38455;SDS011;24237;50.106;20.014;2023-05-10T15:17:11;17.92;;;2.60;;
38455;SDS011;24237;50.106;20.014;2023-05-10T15:19:36;11.35;;;2.40;;
38455;SDS011;24237;50.106;20.014;2023-05-10T15:22:03;8.07;;;2.47;;
38455;SDS011;24237;50.106;20.014;2023-05-10T15:24:29;4.20;;;1.83;;
38455;SDS011;24237;50.106;20.014;2023-05-10T15:26:55;11.07;;;2.10;;
38455;SDS011;24237;50.106;20.014;2023-05-10T15:29:20;13.77;;;2.22;;
38455;SDS011;24237;50.106;20.014;2023-05-10T15:31:46;4.03;;;1.98;;
38455;SDS011;24237;50.106;20.014;2023-05-10T15:34:13;5.17;;;2.47;;